Time;durP1;ratioP1;P1;durP2;ratioP2;P2;SDS_P1;SDS_P2;PMS_P1;PMS_P2;Temp;Humidity;BMP_temperature;BMP_pressure;BME280_temperature;BME280_humidity;BME280_pressure;Samples;Min_cycle;Max_cycle;Signal;HPM_P1;HPM_P2
2022/08/11 00:00:18;;;;;;;;;;;18.40;92.10;;;;;;5085597;28;19979;-66
2022/08/11 00:02:47;;;;;;;;;;;18.40;92.10;;;;;;5085526;28;19929;-66
2022/08/11 00:05:16;;;;;;;;;;;18.30;92.20;;;;;;5085521;28;19983;-65
2022/08/11 00:07:44;;;;;;;;;;;18.30;92.30;;;;;;5085509;28;19943;-65
2022/08/11 00:10:12;;;;;;;;;;;18.20;92.30;;;;;;5085451;28;19920;-65
2022/08/11 00:12:39;;;;;;;;;;;18.10;92.30;;;;;;5084929;28;19920;-65
2022/08/11 00:15:08;;;;;;;;;;;18.10;92.50;;;;;;5085113;28;19920;-66
2022/08/11 00:17:34;;;;;;;;;;;18.00;92.60;;;;;;5084999;28;19920;-65
2022/08/11 00:20:04;;;;;;;;;;;17.90;92.70;;;;;;5085335;28;19987;-66
2022/08/11 00:22:32;;;;;;;;;;;17.90;92.80;;;;;;5085042;28;20228;-66
2022/08/11 00:24:59;;;;;;;;;;;17.80;92.80;;;;;;5084889;28;19928;-65
2022/08/11 00:27:32;;;;;;;;;;;17.80;92.90;;;;;;5084791;28;19927;-65
2022/08/11 00:30:00;;;;;;;;;;;17.70;93.00;;;;;;5085378;28;19927;-66
2022/08/11 00:32:28;;;;;;;;;;;17.70;93.30;;;;;;5084993;28;19921;-65
2022/08/11 00:34:55;;;;;;;;;;;17.60;93.50;;;;;;5084617;28;19924;-66
2022/08/11 00:37:23;;;;;;;;;;;17.60;93.60;;;;;;5084763;28;19979;-66
2022/08/11 00:39:51;;;;;;;;;;;17.50;93.60;;;;;;5084908;28;19955;-65
2022/08/11 00:42:20;;;;;;;;;;;17.60;93.70;;;;;;5084791;28;20090;-65
2022/08/11 00:44:55;;;;;;;;;;;17.50;93.70;;;;;;5084634;28;20151;-65
2022/08/11 00:47:27;;;;;;;;;;;17.40;93.60;;;;;;5084718;28;19992;-65
2022/08/11 00:50:01;;;;;;;;;;;17.50;93.90;;;;;;5084600;28;19976;-65
2022/08/11 00:52:39;;;;;;;;;;;17.40;94.00;;;;;;5084382;28;19951;-65
2022/08/11 00:55:32;;;;;;;;;;;17.40;94.20;;;;;;5084141;28;20267;-65
2022/08/11 00:58:19;;;;;;;;;;;17.30;94.30;;;;;;5060043;28;19920;-65
2022/08/11 01:00:57;;;;;;;;;;;17.20;94.40;;;;;;5084355;28;19952;-65
2022/08/11 01:03:32;;;;;;;;;;;17.20;94.70;;;;;;5084351;28;20101;-65
2022/08/11 01:06:10;;;;;;;;;;;17.10;94.70;;;;;;5084369;28;20171;-66
2022/08/11 01:08:44;;;;;;;;;;;17.00;95.00;;;;;;5084386;28;19959;-66
2022/08/11 01:11:22;;;;;;;;;;;17.00;95.20;;;;;;5084083;28;19984;-66
2022/08/11 01:14:05;;;;;;;;;;;16.90;95.20;;;;;;5083684;28;19947;-65
2022/08/11 01:16:52;;;;;;;;;;;16.90;95.50;;;;;;5083898;28;20290;-65
2022/08/11 01:19:40;;;;;;;;;;;16.90;95.60;;;;;;5083918;28;19983;-65
2022/08/11 01:22:18;;;;;;;;;;;16.90;95.70;;;;;;5084066;28;19962;-66
2022/08/11 01:25:05;;;;;;;;;;;16.90;95.90;;;;;;5082936;28;19927;-65
2022/08/11 01:27:56;;;;;;;;;;;16.80;95.90;;;;;;5083670;28;20280;-65
2022/08/11 01:30:42;;;;;;;;;;;16.80;96.10;;;;;;5083961;28;19920;-65
2022/08/11 01:33:27;;;;;;;;;;;16.80;96.20;;;;;;5083594;28;19946;-66
2022/08/11 01:36:15;;;;;;;;;;;16.70;96.30;;;;;;5083484;28;19995;-65
2022/08/11 01:38:58;;;;;;;;;;;16.70;96.50;;;;;;5057730;28;20115;-65
2022/08/11 01:44:51;;;;;;;;;;;16.60;96.80;;;;;;5054745;28;19923;-65
2022/08/11 01:50:09;;;;;;;;;;;16.40;97.20;;;;;;5082598;28;19952;-66
2022/08/11 01:52:42;;;;;;;;;;;16.40;97.80;;;;;;5083444;28;19955;-65
2022/08/11 01:55:14;;;;;;;;;;;16.30;97.60;;;;;;5083432;28;19983;-65
2022/08/11 01:57:44;;;;;;;;;;;16.30;97.80;;;;;;5083555;28;19920;-65
2022/08/11 02:00:14;;;;;;;;;;;16.30;98.20;;;;;;5083598;28;19940;-65
2022/08/11 02:02:48;;;;;;;;;;;16.20;98.30;;;;;;5083299;28;19932;-66
2022/08/11 02:05:26;;;;;;;;;;;16.20;98.50;;;;;;5083272;28;19966;-65
2022/08/11 02:07:56;;;;;;;;;;;16.20;98.80;;;;;;5083128;28;19940;-66
2022/08/11 02:13:15;;;;;;;;;;;16.10;99.20;;;;;;5083207;28;19928;-65
2022/08/11 02:15:44;;;;;;;;;;;16.10;99.60;;;;;;5083043;28;19928;-65
2022/08/11 02:18:16;;;;;;;;;;;16.10;99.80;;;;;;5083207;28;19927;-65
2022/08/11 02:23:41;;;;;;;;;;;16.00;99.90;;;;;;5082885;28;19979;-68
2022/08/11 02:26:16;;;;;;;;;;;15.90;99.90;;;;;;5082869;28;19928;-68
2022/08/11 02:28:49;;;;;;;;;;;15.90;99.90;;;;;;5083420;28;19920;-68
2022/08/11 02:34:14;;;;;;;;;;;15.90;99.90;;;;;;5083020;28;20191;-68
2022/08/11 02:36:52;;;;;;;;;;;15.90;99.90;;;;;;5083597;28;19958;-68
2022/08/11 02:39:20;;;;;;;;;;;15.80;99.90;;;;;;5087212;28;20176;-68
2022/08/11 02:44:39;;;;;;;;;;;15.90;99.90;;;;;;5086766;28;20170;-68
2022/08/11 02:47:08;;;;;;;;;;;15.80;99.90;;;;;;5086859;28;20222;-68
2022/08/11 02:49:53;;;;;;;;;;;15.80;99.90;;;;;;5086637;28;20167;-68
2022/08/11 02:52:25;;;;;;;;;;;15.80;99.90;;;;;;5086908;28;20260;-68
2022/08/11 02:54:56;;;;;;;;;;;15.80;99.90;;;;;;5086433;28;19995;-67
2022/08/11 02:57:30;;;;;;;;;;;15.70;99.90;;;;;;5086733;28;19967;-68
2022/08/11 02:59:59;;;;;;;;;;;15.70;99.90;;;;;;5086992;28;19921;-68
2022/08/11 03:02:41;;;;;;;;;;;15.70;99.90;;;;;;5086454;28;19944;-68
2022/08/11 03:05:16;;;;;;;;;;;15.70;99.90;;;;;;5086512;28;19966;-66
2022/08/11 03:07:51;;;;;;;;;;;15.70;99.90;;;;;;5086319;28;19924;-66
2022/08/11 03:10:21;;;;;;;;;;;15.70;99.90;;;;;;5086338;28;19966;-66
2022/08/11 03:18:29;;;;;;;;;;;15.50;99.90;;;;;;5086400;28;20223;-65
2022/08/11 03:20:58;;;;;;;;;;;15.50;99.90;;;;;;5086520;28;19956;-66
2022/08/11 03:23:29;;;;;;;;;;;15.50;99.90;;;;;;5085842;28;20200;-66
2022/08/11 03:25:58;;;;;;;;;;;15.50;99.90;;;;;;5086173;28;19988;-66
2022/08/11 03:28:32;;;;;;;;;;;15.40;99.90;;;;;;5086117;28;19987;-66
2022/08/11 03:31:06;;;;;;;;;;;15.30;99.90;;;;;;5086003;28;19920;-66
2022/08/11 03:36:34;;;;;;;;;;;15.30;99.90;;;;;;5086025;28;19926;-66
2022/08/11 03:39:07;;;;;;;;;;;15.30;99.90;;;;;;5086002;28;20178;-66
2022/08/11 03:41:43;;;;;;;;;;;15.20;99.90;;;;;;5085310;28;20397;-66
2022/08/11 03:44:34;;;;;;;;;;;15.20;99.90;;;;;;5086058;28;19944;-66
2022/08/11 03:47:13;;;;;;;;;;;15.10;99.90;;;;;;5085906;28;20212;-66
2022/08/11 03:49:46;;;;;;;;;;;15.10;99.90;;;;;;5085099;28;20255;-66
2022/08/11 03:52:16;;;;;;;;;;;15.00;99.90;;;;;;5085742;28;20180;-66
2022/08/11 03:54:47;;;;;;;;;;;15.00;99.90;;;;;;5085153;28;19920;-66
2022/08/11 03:57:24;;;;;;;;;;;14.90;99.90;;;;;;5085631;28;20479;-66
2022/08/11 04:00:14;;;;;;;;;;;14.90;99.90;;;;;;5085686;28;19947;-66
2022/08/11 04:02:52;;;;;;;;;;;14.90;99.90;;;;;;5085660;28;19959;-65
2022/08/11 04:05:42;;;;;;;;;;;14.80;99.90;;;;;;5085612;28;19952;-66
2022/08/11 04:08:24;;;;;;;;;;;14.90;99.90;;;;;;5069759;28;19921;-66
2022/08/11 04:11:06;;;;;;;;;;;14.80;99.90;;;;;;5085665;28;20200;-66
2022/08/11 04:13:50;;;;;;;;;;;14.80;99.90;;;;;;5082499;28;20101;-66
2022/08/11 04:16:30;;;;;;;;;;;14.80;99.90;;;;;;5084785;28;20125;-66
2022/08/11 04:19:12;;;;;;;;;;;14.80;99.90;;;;;;5081907;28;19944;-66
2022/08/11 04:21:57;;;;;;;;;;;14.80;99.90;;;;;;5085010;28;19940;-66
2022/08/11 04:24:36;;;;;;;;;;;14.80;99.90;;;;;;5084952;28;19983;-66
2022/08/11 04:27:17;;;;;;;;;;;14.70;99.90;;;;;;5085017;28;19920;-66
2022/08/11 04:29:50;;;;;;;;;;;14.70;99.90;;;;;;5082475;28;19992;-66
2022/08/11 04:32:28;;;;;;;;;;;14.70;99.90;;;;;;5085091;28;19995;-66
2022/08/11 04:35:06;;;;;;;;;;;14.70;99.90;;;;;;5084558;28;19920;-66
2022/08/11 04:37:40;;;;;;;;;;;14.60;99.90;;;;;;5084564;28;19920;-66
2022/08/11 04:40:29;;;;;;;;;;;14.60;99.90;;;;;;5084639;28;19983;-67
2022/08/11 04:43:21;;;;;;;;;;;14.60;99.90;;;;;;5084365;28;20223;-66
2022/08/11 04:46:01;;;;;;;;;;;14.60;99.90;;;;;;5057277;28;19923;-66
2022/08/11 05:03:35;;;;;;;;;;;14.70;99.90;;;;;;5084164;28;19961;-66
2022/08/11 05:06:19;;;;;;;;;;;14.60;99.90;;;;;;5084199;28;19959;-66
2022/08/11 05:08:54;;;;;;;;;;;14.70;99.90;;;;;;5083530;28;19952;-66
2022/08/11 05:11:41;;;;;;;;;;;14.80;99.90;;;;;;5084539;28;20043;-66
2022/08/11 05:36:35;;;;;;;;;;;15.30;99.90;;;;;;5021985;28;20336;-66
2022/08/11 05:58:24;;;;;;;;;;;16.40;99.90;;;;;;5038530;28;19954;-66
2022/08/11 06:00:52;;;;;;;;;;;16.50;99.90;;;;;;5083057;28;19920;-66
2022/08/11 06:03:24;;;;;;;;;;;16.60;99.90;;;;;;5083002;28;20148;-66
2022/08/11 06:05:51;;;;;;;;;;;16.70;99.90;;;;;;5083101;28;19979;-66
2022/08/11 06:08:18;;;;;;;;;;;16.80;99.90;;;;;;5083222;28;20194;-66
2022/08/11 06:10:45;;;;;;;;;;;16.90;99.90;;;;;;5083077;28;19983;-66
2022/08/11 06:13:15;;;;;;;;;;;17.00;99.90;;;;;;5083105;28;20212;-66
2022/08/11 06:15:44;;;;;;;;;;;17.10;99.90;;;;;;5083215;28;19927;-67
2022/08/11 06:18:11;;;;;;;;;;;17.30;99.90;;;;;;5083182;28;19928;-66
2022/08/11 06:20:46;;;;;;;;;;;17.40;99.90;;;;;;5083349;28;20227;-67
2022/08/11 06:23:14;;;;;;;;;;;17.50;99.90;;;;;;5082248;28;19967;-66
2022/08/11 06:25:40;;;;;;;;;;;17.60;99.90;;;;;;5083068;28;19921;-66
2022/08/11 06:28:08;;;;;;;;;;;17.80;99.90;;;;;;5083098;28;19970;-66
2022/08/11 06:30:38;;;;;;;;;;;18.00;99.90;;;;;;5083016;28;19948;-66
2022/08/11 06:33:07;;;;;;;;;;;18.20;99.90;;;;;;5082740;28;19920;-66
2022/08/11 06:35:37;;;;;;;;;;;18.40;99.90;;;;;;5083105;28;19952;-66
2022/08/11 06:38:07;;;;;;;;;;;18.50;99.90;;;;;;5082984;28;19926;-66
2022/08/11 06:40:36;;;;;;;;;;;18.60;99.90;;;;;;5082942;28;20166;-66
2022/08/11 06:43:07;;;;;;;;;;;18.70;99.90;;;;;;5082973;28;19983;-66
2022/08/11 06:45:38;;;;;;;;;;;18.80;99.90;;;;;;5083058;28;19926;-66
2022/08/11 06:48:09;;;;;;;;;;;18.90;99.90;;;;;;5082881;28;19963;-67
2022/08/11 06:53:23;;;;;;;;;;;19.10;99.90;;;;;;5082702;28;19939;-66
2022/08/11 07:01:25;;;;;;;;;;;19.40;99.90;;;;;;5082838;28;19963;-66
2022/08/11 07:04:04;;;;;;;;;;;19.50;99.90;;;;;;5082459;28;19987;-66
2022/08/11 07:06:37;;;;;;;;;;;19.50;99.90;;;;;;5082556;28;19921;-66
2022/08/11 07:17:48;;;;;;;;;;;19.90;99.90;;;;;;5082369;28;20223;-66
2022/08/11 07:31:16;;;;;;;;;;;20.30;99.90;;;;;;5086344;28;20011;-66
2022/08/11 07:33:45;;;;;;;;;;;20.50;99.90;;;;;;5085717;28;19958;-66
2022/08/11 07:36:13;;;;;;;;;;;20.60;99.90;;;;;;5086030;28;19967;-66
2022/08/11 07:38:44;;;;;;;;;;;20.80;99.90;;;;;;5085790;28;19956;-66
2022/08/11 07:41:13;;;;;;;;;;;20.90;99.90;;;;;;5085817;28;19962;-66
2022/08/11 07:43:41;;;;;;;;;;;21.00;99.90;;;;;;5085925;28;19988;-67
2022/08/11 07:54:21;;;;;;;;;;;21.60;99.90;;;;;;5085699;28;20120;-66
2022/08/11 07:56:49;;;;;;;;;;;21.70;99.70;;;;;;5085587;28;19955;-66
2022/08/11 08:18:33;;;;;;;;;;;22.70;95.70;;;;;;5085433;28;19959;-66
2022/08/11 08:21:10;;;;;;;;;;;22.80;93.80;;;;;;5085462;28;19988;-66
2022/08/11 08:23:38;;;;;;;;;;;23.00;93.40;;;;;;5085185;28;19974;-66
2022/08/11 08:26:57;;;;;;;;;;;23.10;93.10;;;;;;5085018;28;19980;-66
2022/08/11 08:30:45;;;;;;;;;;;23.20;92.50;;;;;;5084917;28;20135;-66
2022/08/11 08:31:41;;;;;;;;;;;23.20;92.70;;;;;;5084799;28;20243;-67
2022/08/11 08:34:09;;;;;;;;;;;23.40;92.50;;;;;;5084202;28;20204;-67
2022/08/11 08:36:36;;;;;;;;;;;23.50;91.70;;;;;;5084962;28;20102;-66
2022/08/11 08:39:02;;;;;;;;;;;23.50;91.20;;;;;;5085151;28;20000;-67
2022/08/11 08:41:32;;;;;;;;;;;23.50;91.40;;;;;;5084703;28;19948;-67
2022/08/11 08:44:03;;;;;;;;;;;23.60;90.90;;;;;;5084663;28;19920;-66
2022/08/11 08:46:43;;;;;;;;;;;23.60;90.30;;;;;;5084647;28;19955;-66
2022/08/11 08:49:14;;;;;;;;;;;23.70;90.10;;;;;;5084699;28;20279;-67
2022/08/11 08:51:42;;;;;;;;;;;23.80;90.00;;;;;;5084586;28;19987;-67
2022/08/11 08:54:10;;;;;;;;;;;23.80;90.10;;;;;;5084286;28;20026;-67
2022/08/11 08:56:39;;;;;;;;;;;23.80;90.10;;;;;;5084680;28;19996;-67
2022/08/11 08:59:07;;;;;;;;;;;23.90;90.00;;;;;;5084686;28;19967;-67
2022/08/11 09:01:37;;;;;;;;;;;24.00;90.10;;;;;;5084617;28;19920;-67
2022/08/11 09:04:07;;;;;;;;;;;24.10;89.80;;;;;;5084090;28;19927;-67
2022/08/11 09:06:34;;;;;;;;;;;24.20;89.60;;;;;;5084327;28;19928;-67
2022/08/11 09:09:00;;;;;;;;;;;24.20;88.50;;;;;;5084233;28;19921;-66
2022/08/11 09:14:13;;;;;;;;;;;24.20;87.90;;;;;;5084040;28;19983;-66
2022/08/11 09:16:40;;;;;;;;;;;24.30;87.50;;;;;;5083798;28;19959;-67
2022/08/11 09:19:07;;;;;;;;;;;24.30;88.00;;;;;;5084031;28;19921;-66
2022/08/11 09:21:34;;;;;;;;;;;24.40;87.50;;;;;;5083106;28;19921;-66
2022/08/11 09:27:02;;;;;;;;;;;24.50;87.40;;;;;;5083935;28;19923;-66
2022/08/11 09:29:31;;;;;;;;;;;24.50;88.00;;;;;;5083849;28;20266;-66
2022/08/11 09:31:58;;;;;;;;;;;24.60;87.90;;;;;;5084081;28;19921;-67
2022/08/11 09:34:26;;;;;;;;;;;24.60;87.80;;;;;;5083485;28;20187;-67
2022/08/11 09:44:45;;;;;;;;;;;24.90;86.30;;;;;;5083775;28;19924;-67
2022/08/11 09:45:11;;;;;;;;;;;25.00;85.40;;;;;;5083472;28;20204;-66
2022/08/11 09:47:39;;;;;;;;;;;25.00;85.20;;;;;;5083250;28;20147;-66
2022/08/11 09:50:08;;;;;;;;;;;25.00;84.90;;;;;;5083469;28;19966;-66
2022/08/11 09:52:36;;;;;;;;;;;25.20;84.50;;;;;;5083679;28;19955;-67
2022/08/11 09:55:05;;;;;;;;;;;25.30;81.50;;;;;;5075151;28;20224;-67
2022/08/11 10:00:17;;;;;;;;;;;25.50;81.10;;;;;;5083532;28;19939;-67
2022/08/11 10:02:46;;;;;;;;;;;25.60;80.70;;;;;;5083445;28;19932;-67
2022/08/11 10:08:00;;;;;;;;;;;25.90;80.20;;;;;;5083450;28;19938;-67
2022/08/11 10:10:27;;;;;;;;;;;25.90;79.30;;;;;;5083501;28;19925;-67
2022/08/11 10:12:58;;;;;;;;;;;25.90;79.00;;;;;;5082875;28;19966;-67
2022/08/11 10:15:33;;;;;;;;;;;26.00;79.80;;;;;;5083229;28;20201;-67
2022/08/11 10:20:49;;;;;;;;;;;26.20;79.00;;;;;;5083266;28;20175;-67
2022/08/11 10:28:44;;;;;;;;;;;26.40;78.00;;;;;;5083228;28;19923;-67
2022/08/11 10:34:00;;;;;;;;;;;26.70;76.60;;;;;;5083411;28;19928;-67
2022/08/11 10:36:27;;;;;;;;;;;26.80;76.50;;;;;;5082989;28;19921;-68
2022/08/11 10:38:54;;;;;;;;;;;26.90;75.90;;;;;;5082965;28;19958;-67
2022/08/11 10:44:06;;;;;;;;;;;26.90;74.00;;;;;;5082696;28;19922;-67
2022/08/11 10:49:20;;;;;;;;;;;26.80;71.80;;;;;;5083021;28;19927;-67
2022/08/11 11:00:01;;;;;;;;;;;27.00;72.90;;;;;;5086860;28;19923;-67
2022/08/11 11:02:30;;;;;;;;;;;27.20;72.20;;;;;;5086712;28;19963;-67
2022/08/11 11:05:02;;;;;;;;;;;27.30;72.20;;;;;;5086383;28;19967;-67
2022/08/11 11:07:37;;;;;;;;;;;27.40;72.30;;;;;;5086634;28;19928;-67
2022/08/11 11:10:05;;;;;;;;;;;27.50;70.50;;;;;;5086635;28;19928;-67
2022/08/11 11:18:08;;;;;;;;;;;27.80;70.10;;;;;;5086402;28;20235;-67
2022/08/11 11:20:36;;;;;;;;;;;27.80;70.90;;;;;;5086629;28;19990;-67
2022/08/11 11:23:04;;;;;;;;;;;27.80;70.30;;;;;;5086048;28;19920;-67
2022/08/11 11:25:38;;;;;;;;;;;27.80;70.80;;;;;;5086280;28;20227;-67
2022/08/11 11:28:20;;;;;;;;;;;27.90;71.30;;;;;;5086195;28;19928;-67
2022/08/11 11:30:55;;;;;;;;;;;28.10;71.20;;;;;;5083652;28;19920;-67
2022/08/11 11:33:26;;;;;;;;;;;28.20;70.60;;;;;;5086030;28;19952;-66
2022/08/11 11:36:01;;;;;;;;;;;28.30;70.40;;;;;;5086098;28;20159;-67
2022/08/11 11:38:28;;;;;;;;;;;28.50;69.00;;;;;;5085843;28;19989;-67
2022/08/11 11:43:36;;;;;;;;;;;28.60;66.70;;;;;;5085014;28;19939;-67
2022/08/11 11:46:05;;;;;;;;;;;28.50;66.50;;;;;;5077923;28;19927;-66
2022/08/11 11:48:33;;;;;;;;;;;28.50;66.50;;;;;;5085952;28;19942;-67
2022/08/11 11:51:00;;;;;;;;;;;28.40;66.60;;;;;;5086118;28;19961;-67
2022/08/11 11:53:27;;;;;;;;;;;28.50;66.90;;;;;;5085922;28;19956;-67
2022/08/11 11:55:53;;;;;;;;;;;28.50;67.10;;;;;;5085637;28;20256;-67
2022/08/11 12:01:18;;;;;;;;;;;28.70;67.40;;;;;;5085901;28;19923;-67
2022/08/11 12:03:49;;;;;;;;;;;28.90;67.10;;;;;;5085302;28;19921;-68
2022/08/11 12:06:17;;;;;;;;;;;28.90;65.60;;;;;;5085842;28;19920;-67
2022/08/11 12:08:44;;;;;;;;;;;28.80;66.00;;;;;;5085216;28;19966;-67
2022/08/11 12:13:58;;;;;;;;;;;29.20;64.50;;;;;;5085246;28;19946;-67
2022/08/11 12:16:25;;;;;;;;;;;29.50;64.50;;;;;;5085626;28;20018;-67
2022/08/11 12:18:55;;;;;;;;;;;29.60;64.20;;;;;;5085337;28;19920;-67
2022/08/11 12:21:22;;;;;;;;;;;29.70;63.90;;;;;;5085305;28;19921;-67
2022/08/11 12:29:19;;;;;;;;;;;29.40;65.10;;;;;;5085309;28;19930;-67
2022/08/11 12:31:46;;;;;;;;;;;29.50;64.50;;;;;;5085050;28;19921;-67
2022/08/11 12:34:15;;;;;;;;;;;29.50;64.30;;;;;;5084766;28;19928;-68
2022/08/11 12:36:46;;;;;;;;;;;29.70;65.10;;;;;;5084710;28;20184;-67
2022/08/11 12:39:13;;;;;;;;;;;30.00;63.70;;;;;;5085024;28;19952;-67
2022/08/11 12:47:13;;;;;;;;;;;30.40;61.60;;;;;;5084155;28;19923;-67
2022/08/11 12:52:43;;;;;;;;;;;30.70;61.70;;;;;;5062524;28;19920;-67
2022/08/11 12:55:11;;;;;;;;;;;30.90;60.20;;;;;;5079962;28;20172;-68
2022/08/11 13:05:57;;;;;;;;;;;30.00;62.50;;;;;;5084382;28;19923;-68
2022/08/11 13:08:24;;;;;;;;;;;30.40;62.00;;;;;;5084602;28;19970;-67
2022/08/11 13:13:37;;;;;;;;;;;30.70;60.40;;;;;;5084121;28;20124;-67
2022/08/11 13:16:05;;;;;;;;;;;30.70;60.00;;;;;;5084015;28;19962;-68
2022/08/11 13:18:33;;;;;;;;;;;30.60;59.90;;;;;;5084056;28;20274;-67
2022/08/11 13:21:02;;;;;;;;;;;30.60;59.50;;;;;;5083627;28;19946;-67
2022/08/11 13:23:29;;;;;;;;;;;30.80;59.70;;;;;;5083945;28;19974;-67
2022/08/11 13:25:55;;;;;;;;;;;31.00;61.40;;;;;;5083932;28;19920;-67
2022/08/11 13:28:23;;;;;;;;;;;31.20;59.90;;;;;;5084020;28;19975;-68
2022/08/11 13:33:35;;;;;;;;;;;31.60;59.40;;;;;;5083665;28;19988;-67
2022/08/11 13:36:04;;;;;;;;;;;31.60;58.50;;;;;;5083839;28;19921;-67
2022/08/11 13:38:32;;;;;;;;;;;31.40;59.00;;;;;;5083467;28;19950;-68
2022/08/11 13:40:59;;;;;;;;;;;31.00;58.40;;;;;;5083711;28;19924;-67
2022/08/11 13:43:26;;;;;;;;;;;31.00;58.60;;;;;;5083283;28;20212;-67
2022/08/11 13:46:17;;;;;;;;;;;31.10;58.80;;;;;;5083233;28;19948;-67
2022/08/11 13:48:41;;;;;;;;;;;30.90;58.10;;;;;;5083540;28;19924;-67
2022/08/11 13:53:53;;;;;;;;;;;30.70;58.40;;;;;;5083302;28;19928;-67
2022/08/11 13:56:22;;;;;;;;;;;30.50;59.10;;;;;;5083384;28;19952;-67
2022/08/11 13:58:49;;;;;;;;;;;30.40;59.20;;;;;;5083280;28;19928;-67
2022/08/11 14:01:16;;;;;;;;;;;30.50;58.90;;;;;;5083453;28;19927;-67
2022/08/11 14:03:43;;;;;;;;;;;30.50;59.10;;;;;;5083238;28;19921;-67
2022/08/11 14:06:11;;;;;;;;;;;30.50;58.30;;;;;;5083313;28;19952;-67
2022/08/11 14:08:38;;;;;;;;;;;30.50;59.10;;;;;;5083356;28;19960;-67
2022/08/11 14:13:51;;;;;;;;;;;30.40;58.70;;;;;;5083188;28;19958;-67
2022/08/11 14:16:20;;;;;;;;;;;30.40;57.90;;;;;;5083120;28;19920;-67
2022/08/11 14:18:49;;;;;;;;;;;30.60;58.20;;;;;;5083089;28;19995;-68
2022/08/11 14:24:03;;;;;;;;;;;30.70;58.70;;;;;;5083027;28;19928;-67
2022/08/11 14:26:35;;;;;;;;;;;30.70;58.00;;;;;;5083035;28;19932;-67
2022/08/11 14:29:06;;;;;;;;;;;30.80;57.60;;;;;;5083223;28;20053;-67
2022/08/11 14:31:35;;;;;;;;;;;30.60;57.70;;;;;;5083179;28;19924;-67
2022/08/11 14:34:03;;;;;;;;;;;30.60;57.70;;;;;;5087229;28;19928;-67
2022/08/11 14:36:33;;;;;;;;;;;30.70;58.20;;;;;;5087381;28;19948;-67
2022/08/11 14:39:01;;;;;;;;;;;30.90;57.90;;;;;;5087221;28;19921;-67
2022/08/11 14:47:06;;;;;;;;;;;31.20;56.80;;;;;;5086489;28;19987;-67
2022/08/11 14:49:34;;;;;;;;;;;31.10;57.00;;;;;;5087228;28;20011;-67
2022/08/11 14:52:03;;;;;;;;;;;31.10;56.30;;;;;;5087059;28;19920;-67
2022/08/11 14:57:15;;;;;;;;;;;31.10;56.20;;;;;;5086885;28;19970;-67
2022/08/11 14:59:43;;;;;;;;;;;31.10;56.40;;;;;;5086932;28;19983;-66
2022/08/11 15:04:54;;;;;;;;;;;31.00;55.90;;;;;;5086548;28;19962;-68
2022/08/11 15:07:28;;;;;;;;;;;30.80;55.80;;;;;;5086848;28;19929;-67
2022/08/11 15:09:56;;;;;;;;;;;30.90;56.60;;;;;;5086631;28;19920;-67
2022/08/11 15:12:23;;;;;;;;;;;30.90;56.10;;;;;;5086432;28;19920;-67
2022/08/11 15:17:35;;;;;;;;;;;31.10;55.30;;;;;;5086479;28;20175;-67
2022/08/11 15:25:34;;;;;;;;;;;30.90;55.20;;;;;;5086192;28;19927;-67
2022/08/11 15:39:02;;;;;;;;;;;31.30;55.00;;;;;;5086042;28;19971;-67
2022/08/11 15:47:02;;;;;;;;;;;31.30;54.60;;;;;;5085398;28;19962;-67
2022/08/11 15:49:29;;;;;;;;;;;31.20;54.80;;;;;;5086034;28;19950;-67
2022/08/11 15:52:01;;;;;;;;;;;31.10;54.40;;;;;;5085871;28;20119;-67
2022/08/11 15:54:30;;;;;;;;;;;31.10;54.90;;;;;;5085480;28;19921;-67
2022/08/11 15:56:57;;;;;;;;;;;31.10;55.30;;;;;;5085480;28;19982;-67
2022/08/11 16:04:52;;;;;;;;;;;31.10;55.30;;;;;;5073189;28;19984;-67
2022/08/11 16:07:25;;;;;;;;;;;31.10;55.70;;;;;;5085331;28;20270;-67
2022/08/11 16:09:55;;;;;;;;;;;30.70;55.00;;;;;;5085447;28;19920;-67
2022/08/11 16:12:23;;;;;;;;;;;30.70;55.30;;;;;;5085355;28;19921;-67
2022/08/11 16:17:37;;;;;;;;;;;30.80;54.40;;;;;;5085335;28;19923;-67
2022/08/11 16:20:05;;;;;;;;;;;30.90;54.40;;;;;;5085472;28;19967;-67
2022/08/11 16:22:38;;;;;;;;;;;30.90;54.10;;;;;;5085292;28;19943;-67
2022/08/11 16:25:07;;;;;;;;;;;31.00;53.70;;;;;;5085140;28;20062;-68
2022/08/11 16:27:36;;;;;;;;;;;31.10;54.10;;;;;;5085294;28;19920;-68
2022/08/11 16:30:05;;;;;;;;;;;31.10;53.70;;;;;;5085094;28;19958;-68
2022/08/11 16:32:33;;;;;;;;;;;30.90;54.00;;;;;;5085338;28;19951;-68
2022/08/11 16:40:32;;;;;;;;;;;30.80;54.60;;;;;;5084901;28;19927;-67
2022/08/11 16:48:31;;;;;;;;;;;30.20;54.70;;;;;;5084216;28;19926;-68
2022/08/11 16:50:59;;;;;;;;;;;30.10;54.70;;;;;;5084777;28;19932;-69
2022/08/11 16:53:28;;;;;;;;;;;29.90;54.20;;;;;;5084620;28;19920;-67
2022/08/11 16:55:58;;;;;;;;;;;29.70;54.40;;;;;;5083658;28;19921;-69
2022/08/11 17:01:11;;;;;;;;;;;29.50;56.40;;;;;;5084657;28;19923;-68
2022/08/11 17:14:48;;;;;;;;;;;29.40;55.90;;;;;;5084085;28;19943;-68
2022/08/11 17:17:16;;;;;;;;;;;29.10;56.50;;;;;;5084196;28;19921;-67
2022/08/11 17:19:46;;;;;;;;;;;28.90;57.10;;;;;;5084016;28;19958;-68
2022/08/11 17:24:59;;;;;;;;;;;28.60;58.10;;;;;;5083892;28;20007;-67
2022/08/11 17:27:28;;;;;;;;;;;28.40;57.90;;;;;;5083784;28;19977;-67
2022/08/11 17:29:56;;;;;;;;;;;28.30;58.40;;;;;;5084111;28;19935;-68
2022/08/11 17:35:29;;;;;;;;;;;28.10;58.80;;;;;;5083793;28;19984;-68
2022/08/11 17:37:58;;;;;;;;;;;28.10;58.70;;;;;;5083497;28;20212;-68
2022/08/11 17:40:25;;;;;;;;;;;28.00;58.60;;;;;;5083864;28;19983;-68
2022/08/11 17:48:27;;;;;;;;;;;27.90;58.90;;;;;;5082866;28;19922;-68
2022/08/11 17:50:55;;;;;;;;;;;27.80;59.00;;;;;;5083781;28;20258;-68
2022/08/11 18:01:38;;;;;;;;;;;27.60;59.80;;;;;;5083594;28;20173;-68
2022/08/11 18:04:05;;;;;;;;;;;27.50;59.90;;;;;;5083339;28;19936;-68
2022/08/11 18:06:33;;;;;;;;;;;27.50;60.10;;;;;;5083199;28;19924;-68
